createdAt,value
2023-04-19T00:00:12.803Z,15.20
2023-04-19T00:05:15.939Z,17.45
2023-04-19T00:10:20.756Z,18.23
2023-04-19T00:15:23.880Z,15.35
2023-04-19T00:20:27.269Z,16.35
2023-04-19T00:25:32.021Z,19.85
2023-04-19T00:30:35.158Z,14.95
2023-04-19T00:35:38.459Z,18.90
2023-04-19T00:40:42.919Z,17.45
2023-04-19T00:45:46.178Z,19.20
2023-04-19T00:50:49.416Z,15.95
2023-04-19T00:55:55.258Z,21.60
2023-04-19T01:00:58.351Z,18.70
2023-04-19T01:06:01.580Z,17.25
2023-04-19T01:11:08.052Z,16.83
2023-04-19T01:16:11.682Z,18.48
2023-04-19T01:21:14.842Z,15.43
2023-04-19T01:26:20.339Z,18.95
2023-04-19T01:31:23.484Z,19.65
2023-04-19T01:36:27.821Z,19.98
2023-04-19T01:41:32.385Z,18.13
2023-04-19T01:46:36.678Z,17.67
2023-04-19T01:51:40.005Z,17.52
2023-04-19T01:56:44.672Z,16.90
2023-04-19T02:01:47.820Z,19.10
2023-04-19T02:06:51.026Z,16.90
2023-04-19T02:11:55.633Z,22.23
2023-04-19T02:16:58.855Z,17.90
2023-04-19T02:22:02.124Z,19.98
2023-04-19T02:27:06.736Z,17.67
2023-04-19T02:32:09.873Z,18.90
2023-04-19T02:37:14.695Z,18.08
2023-04-19T02:42:19.260Z,17.38
2023-04-19T02:47:22.391Z,16.05
2023-04-19T02:52:27.822Z,17.90
2023-04-19T02:57:32.760Z,16.42
2023-04-19T03:02:38.070Z,16.02
2023-04-19T03:07:44.409Z,16.30
2023-04-19T03:12:49.900Z,18.25
2023-04-19T03:17:53.682Z,19.67
2023-04-19T03:22:58.561Z,16.45
2023-04-19T03:28:03.683Z,14.18
2023-04-19T03:33:29.607Z,15.75
2023-04-19T03:38:33.095Z,14.93
2023-04-19T03:43:39.310Z,15.48
2023-04-19T03:48:42.451Z,16.55
2023-04-19T03:53:45.648Z,13.07
2023-04-19T03:58:51.668Z,11.13
2023-04-19T04:03:55.339Z,12.23
2023-04-19T04:08:59.060Z,13.27
2023-04-19T04:14:03.879Z,12.77
2023-04-19T04:19:10.140Z,16.33
2023-04-19T04:24:17.922Z,14.63
2023-04-19T04:29:49.553Z,13.10
2023-04-19T04:34:53.214Z,12.10
2023-04-19T04:40:06.017Z,12.40
2023-04-19T04:45:13.081Z,10.93
2023-04-19T04:50:19.264Z,11.10
2023-04-19T04:55:24.538Z,13.57
2023-04-19T05:00:29.311Z,12.10
2023-04-19T05:05:44.385Z,12.05
2023-04-19T05:10:48.232Z,9.57
2023-04-19T05:15:52.931Z,13.95
2023-04-19T05:20:57.726Z,12.35
2023-04-19T05:26:05.738Z,14.25
2023-04-19T05:31:10.746Z,11.50
2023-04-19T05:36:22.852Z,14.10
2023-04-19T05:41:28.179Z,11.00
2023-04-19T05:46:32.743Z,10.10
2023-04-19T05:51:36.816Z,11.07
2023-04-19T05:56:47.220Z,8.20
2023-04-19T06:01:52.829Z,12.85
2023-04-19T06:06:56.342Z,19.65
2023-04-19T06:11:59.538Z,11.40
2023-04-19T06:17:04.152Z,8.20
2023-04-19T06:22:07.248Z,12.52
2023-04-19T06:27:10.446Z,13.73
2023-04-19T06:32:15.369Z,11.98
2023-04-19T06:37:18.758Z,11.02
2023-04-19T06:42:21.914Z,10.27
2023-04-19T06:47:26.968Z,12.18
2023-04-19T06:52:30.298Z,8.63
2023-04-19T06:57:33.549Z,10.02
2023-04-19T07:02:38.125Z,10.63
2023-04-19T07:07:41.881Z,8.93
2023-04-19T07:12:45.091Z,10.38
2023-04-19T07:17:49.656Z,8.90
2023-04-19T07:22:52.897Z,12.15
2023-04-19T07:27:56.614Z,8.75
2023-04-19T07:33:01.752Z,8.10
2023-04-19T07:38:04.906Z,8.82
2023-04-19T07:43:08.362Z,7.28
2023-04-19T07:48:12.957Z,8.60
2023-04-19T07:53:16.586Z,8.07
2023-04-19T07:58:19.709Z,7.68
2023-04-19T08:03:24.464Z,8.82
2023-04-19T08:08:28.599Z,7.13
2023-04-19T08:13:31.896Z,8.13
2023-04-19T08:18:36.716Z,8.25
2023-04-19T08:23:48.023Z,7.22
2023-04-19T08:28:52.364Z,4.78
2023-04-19T08:33:57.061Z,5.53
2023-04-19T08:39:29.317Z,5.55
2023-04-19T08:44:35.516Z,5.50
2023-04-19T08:49:43.261Z,4.93
2023-04-19T08:54:47.377Z,8.02
2023-04-19T08:59:55.856Z,5.05
2023-04-19T09:05:01.130Z,5.07
2023-04-19T09:10:08.694Z,5.68
2023-04-19T09:15:12.163Z,4.82
2023-04-19T09:20:16.908Z,3.38
2023-04-19T09:25:46.400Z,4.88
2023-04-19T09:31:00.658Z,8.00
2023-04-19T09:36:27.159Z,6.57
2023-04-19T09:41:30.278Z,5.57
2023-04-19T09:46:34.804Z,6.40
2023-04-19T09:51:42.654Z,6.68
2023-04-19T09:56:46.266Z,4.55
2023-04-19T10:01:51.038Z,4.45
2023-04-19T10:07:19.299Z,6.10
2023-04-19T10:12:39.000Z,7.80
2023-04-19T10:17:42.694Z,5.35
2023-04-19T10:22:47.537Z,4.75
2023-04-19T10:27:51.427Z,6.22
2023-04-19T10:32:56.380Z,3.60
2023-04-19T10:38:12.348Z,5.60
2023-04-19T10:43:16.129Z,3.90
2023-04-19T10:48:39.321Z,6.43
2023-04-19T10:53:50.875Z,4.43
2023-04-19T10:59:15.005Z,4.55
2023-04-19T11:04:19.488Z,5.40
2023-04-19T11:09:24.951Z,7.93
2023-04-19T11:14:31.089Z,7.10
2023-04-19T11:19:34.204Z,5.28
2023-04-19T11:24:38.696Z,6.75
2023-04-19T11:29:41.837Z,6.15
2023-04-19T11:34:45.126Z,7.70
2023-04-19T11:39:49.783Z,8.55
2023-04-19T11:44:53.265Z,6.32
2023-04-19T11:49:57.235Z,7.00
2023-04-19T11:55:18.780Z,4.97
2023-04-19T12:00:28.417Z,5.03
2023-04-19T12:05:32.009Z,5.47
2023-04-19T12:10:36.697Z,8.10
2023-04-19T12:15:43.286Z,7.35
2023-04-19T12:20:47.001Z,7.28
2023-04-19T12:25:51.645Z,6.30
2023-04-19T12:30:54.881Z,10.38
2023-04-19T12:35:58.002Z,5.95
2023-04-19T12:41:02.560Z,12.23
2023-04-19T12:46:05.966Z,7.47
2023-04-19T12:51:09.931Z,10.60
2023-04-19T12:56:15.934Z,5.22
2023-04-19T13:01:19.288Z,6.82
2023-04-19T13:06:22.523Z,5.97
2023-04-19T13:11:27.110Z,6.13
2023-04-19T13:16:30.236Z,7.05
2023-04-19T13:21:33.457Z,7.78
2023-04-19T13:26:37.991Z,5.47
2023-04-19T13:31:43.623Z,6.45
2023-04-19T13:36:47.123Z,12.35
2023-04-19T13:41:51.693Z,10.65
2023-04-19T13:46:54.954Z,5.60
2023-04-19T13:51:58.054Z,11.63
2023-04-19T13:57:02.844Z,5.55
2023-04-19T14:02:06.059Z,6.03
2023-04-19T14:07:09.960Z,5.13
2023-04-19T14:12:14.633Z,5.68
2023-04-19T14:17:17.780Z,5.15
2023-04-19T14:22:20.969Z,6.07
2023-04-19T14:27:26.309Z,5.05
2023-04-19T14:32:29.643Z,6.90
2023-04-19T14:37:32.774Z,7.38
2023-04-19T14:42:37.253Z,4.63
2023-04-19T14:47:40.527Z,6.70
2023-04-19T14:52:45.195Z,7.53
2023-04-19T14:57:49.647Z,6.63
2023-04-19T15:02:52.910Z,5.90
2023-04-19T15:07:56.094Z,8.50
2023-04-19T15:13:00.582Z,5.22
2023-04-19T15:18:03.742Z,5.18
2023-04-19T15:23:06.890Z,5.60
2023-04-19T15:28:11.375Z,7.05
2023-04-19T15:33:14.506Z,6.68
2023-04-19T15:38:17.651Z,11.25
2023-04-19T15:43:22.075Z,7.35
2023-04-19T15:48:25.208Z,6.40
2023-04-19T15:53:36.653Z,6.00
2023-04-19T15:58:39.851Z,8.20
2023-04-19T16:03:43.099Z,8.10
2023-04-19T16:08:47.605Z,6.53
2023-04-19T16:13:50.698Z,6.10
2023-04-19T16:18:53.780Z,4.45
2023-04-19T16:23:58.511Z,6.00
2023-04-19T16:29:01.918Z,6.65
2023-04-19T16:34:05.020Z,5.07
2023-04-19T16:39:09.467Z,6.95
2023-04-19T16:44:12.602Z,4.80
2023-04-19T16:49:15.969Z,7.03
2023-04-19T16:54:20.624Z,4.25
2023-04-19T16:59:23.726Z,4.95
2023-04-19T17:04:27.166Z,6.13
2023-04-19T17:09:31.816Z,7.22
2023-04-19T17:14:35.337Z,4.95
2023-04-19T17:19:38.434Z,5.38
2023-04-19T17:24:43.249Z,5.07
2023-04-19T17:29:46.382Z,5.45
2023-04-19T17:34:49.591Z,4.05
2023-04-19T17:39:54.082Z,4.80
2023-04-19T17:44:58.497Z,4.50
2023-04-19T17:50:06.361Z,6.03
2023-04-19T17:55:11.197Z,8.95
2023-04-19T18:00:15.213Z,5.90
2023-04-19T18:05:18.523Z,4.25
2023-04-19T18:10:23.227Z,6.45
2023-04-19T18:15:26.400Z,7.68
2023-04-19T18:20:29.493Z,5.10
2023-04-19T18:25:36.697Z,7.25
2023-04-19T18:30:39.870Z,6.65
2023-04-19T18:35:42.935Z,8.25
2023-04-19T18:40:47.389Z,5.43
2023-04-19T18:45:54.252Z,5.70
2023-04-19T18:50:57.953Z,5.55
2023-04-19T18:56:03.872Z,7.50
2023-04-19T19:01:07.018Z,6.20
2023-04-19T19:06:10.291Z,7.60
2023-04-19T19:11:37.354Z,5.13
2023-04-19T19:16:50.842Z,6.32
2023-04-19T19:21:54.967Z,7.80
2023-04-19T19:27:00.802Z,6.38
2023-04-19T19:32:08.174Z,11.07
2023-04-19T19:37:12.734Z,5.93
2023-04-19T19:42:18.180Z,6.05
2023-04-19T19:47:21.300Z,12.00
2023-04-19T19:52:25.380Z,6.35
2023-04-19T19:58:20.533Z,6.90
2023-04-19T20:02:56.705Z,5.82
2023-04-19T20:08:11.852Z,8.38
2023-04-19T20:13:17.079Z,8.23
2023-04-19T20:18:20.164Z,9.18
2023-04-19T20:23:23.283Z,12.57
2023-04-19T20:28:27.793Z,7.40
2023-04-19T20:33:30.964Z,6.07
2023-04-19T20:38:34.623Z,6.55
2023-04-19T20:43:39.272Z,4.85
2023-04-19T20:48:42.349Z,7.38
2023-04-19T20:53:45.679Z,9.43
2023-04-19T20:58:50.144Z,11.55
2023-04-19T21:03:53.353Z,6.90
2023-04-19T21:08:57.583Z,38.67
2023-04-19T21:14:02.003Z,6.00
2023-04-19T21:19:05.105Z,7.07
2023-04-19T21:24:08.582Z,10.52
2023-04-19T21:29:13.014Z,5.25
2023-04-19T21:34:16.153Z,10.10
2023-04-19T21:39:19.454Z,7.45
2023-04-19T21:44:23.997Z,6.57
2023-04-19T21:49:27.063Z,6.15
2023-04-19T21:54:34.022Z,5.38
2023-04-19T21:59:38.902Z,10.48
2023-04-19T22:04:42.180Z,6.93
2023-04-19T22:09:46.355Z,6.53
2023-04-19T22:14:51.180Z,8.88
2023-04-19T22:19:54.934Z,5.05
2023-04-19T22:24:58.436Z,7.75
2023-04-19T22:30:02.881Z,8.63
2023-04-19T22:35:06.776Z,7.22
2023-04-19T22:40:10.460Z,9.75
2023-04-19T22:45:14.923Z,5.85
2023-04-19T22:50:18.052Z,6.28
2023-04-19T22:55:21.192Z,5.90
2023-04-19T23:00:25.910Z,7.28
2023-04-19T23:05:29.041Z,8.25
2023-04-19T23:10:32.850Z,4.75
2023-04-19T23:15:38.342Z,5.97
2023-04-19T23:20:41.605Z,5.50
2023-04-19T23:25:44.597Z,10.77
2023-04-19T23:30:49.105Z,5.80
2023-04-19T23:35:52.184Z,4.75
2023-04-19T23:40:55.366Z,8.10
2023-04-19T23:45:59.800Z,7.50
2023-04-19T23:51:02.888Z,6.15
2023-04-19T23:56:06.582Z,8.15
